createdAt,value
2017-12-20T00:00:35.000Z,1024.011
2017-12-20T00:10:35.000Z,1023.95
2017-12-20T00:20:35.000Z,1023.864
2017-12-20T00:30:35.000Z,1023.927
2017-12-20T00:40:35.000Z,1023.946
2017-12-20T00:50:35.000Z,1023.977
2017-12-20T01:00:35.000Z,1023.915
2017-12-20T01:10:35.000Z,1023.911
2017-12-20T01:20:35.000Z,1023.957
2017-12-20T01:30:35.000Z,1023.945
2017-12-20T01:40:35.000Z,1023.965
2017-12-20T01:50:35.000Z,1023.924
2017-12-20T02:00:35.000Z,1023.923
2017-12-20T02:10:35.000Z,1023.977
2017-12-20T02:20:35.000Z,1023.874
2017-12-20T02:30:35.000Z,1023.805
2017-12-20T02:40:35.000Z,1023.869
2017-12-20T02:50:35.000Z,1023.867
2017-12-20T03:00:35.000Z,1023.755
2017-12-20T03:10:35.000Z,1023.637
2017-12-20T03:20:35.000Z,1023.64
2017-12-20T03:30:35.000Z,1023.649
2017-12-20T03:40:35.000Z,1023.646
2017-12-20T03:50:35.000Z,1023.667
2017-12-20T04:10:35.000Z,1023.772
2017-12-20T04:20:36.000Z,1023.824
2017-12-20T04:30:35.000Z,1023.85
2017-12-20T04:40:35.000Z,1023.856
2017-12-20T04:50:35.000Z,1023.866
2017-12-20T05:00:35.000Z,1023.839
2017-12-20T05:10:35.000Z,1023.903
2017-12-20T05:20:35.000Z,1023.826
2017-12-20T05:30:35.000Z,1023.717
2017-12-20T05:40:35.000Z,1023.655
2017-12-20T05:50:35.000Z,1023.762
2017-12-20T06:00:35.000Z,1023.765
2017-12-20T06:10:35.000Z,1023.913
2017-12-20T06:20:35.000Z,1023.902
2017-12-20T06:30:35.000Z,1023.912
2017-12-20T06:40:36.000Z,1023.935
2017-12-20T06:50:36.000Z,1023.942
2017-12-20T07:00:36.000Z,1024.067
2017-12-20T07:10:36.000Z,1024.234
2017-12-20T07:20:36.000Z,1024.311
2017-12-20T07:30:36.000Z,1024.389
2017-12-20T07:40:36.000Z,1024.343
2017-12-20T07:50:36.000Z,1024.34
2017-12-20T08:00:36.000Z,1024.272
2017-12-20T08:10:36.000Z,1024.355
2017-12-20T08:20:36.000Z,1024.408
2017-12-20T08:30:36.000Z,1024.663
2017-12-20T08:40:36.000Z,1024.868
2017-12-20T08:50:36.000Z,1025.012
2017-12-20T09:00:36.000Z,1025.075
2017-12-20T09:10:36.000Z,1025.031
2017-12-20T09:20:36.000Z,1025.179
2017-12-20T09:30:36.000Z,1025.193
2017-12-20T09:40:36.000Z,1025.31
2017-12-20T09:50:36.000Z,1025.319
2017-12-20T10:00:36.000Z,1025.354
2017-12-20T10:10:36.000Z,1025.311
2017-12-20T10:20:36.000Z,1025.405
2017-12-20T10:30:36.000Z,1025.355
2017-12-20T10:40:36.000Z,1025.374
2017-12-20T10:50:36.000Z,1025.293
2017-12-20T11:00:36.000Z,1025.292
2017-12-20T11:10:36.000Z,1025.272
2017-12-20T11:20:36.000Z,1025.123
2017-12-20T11:30:36.000Z,1025.092
2017-12-20T11:40:36.000Z,1025.003
2017-12-20T11:50:36.000Z,1024.977
2017-12-20T12:00:36.000Z,1024.848
2017-12-20T12:10:36.000Z,1024.799
2017-12-20T12:20:36.000Z,1024.807
2017-12-20T12:30:36.000Z,1024.823
2017-12-20T12:40:36.000Z,1024.896
2017-12-20T12:50:36.000Z,1024.832
2017-12-20T13:00:36.000Z,1024.82
2017-12-20T13:10:36.000Z,1024.755
2017-12-20T13:20:36.000Z,1024.716
2017-12-20T13:30:36.000Z,1024.755
2017-12-20T13:40:36.000Z,1024.808
2017-12-20T13:50:36.000Z,1024.747
2017-12-20T14:00:36.000Z,1024.711
2017-12-20T14:10:36.000Z,1024.824
2017-12-20T14:20:36.000Z,1024.741
2017-12-20T14:30:36.000Z,1024.823
2017-12-20T14:40:36.000Z,1024.9
2017-12-20T14:50:36.000Z,1024.991
2017-12-20T15:00:37.000Z,1024.94
2017-12-20T15:10:37.000Z,1024.846
2017-12-20T15:20:37.000Z,1024.927
2017-12-20T15:30:37.000Z,1024.986
2017-12-20T15:40:37.000Z,1025.256
2017-12-20T15:50:37.000Z,1025.407
2017-12-20T16:00:37.000Z,1025.385
2017-12-20T16:10:37.000Z,1025.424
2017-12-20T16:30:37.000Z,1025.313
2017-12-20T16:40:37.000Z,1025.229
2017-12-20T16:50:37.000Z,1025.245
2017-12-20T17:00:37.000Z,1025.179
2017-12-20T17:10:37.000Z,1025.176
2017-12-20T17:30:37.000Z,1025.26
2017-12-20T17:40:37.000Z,1025.358
2017-12-20T17:50:37.000Z,1025.555
2017-12-20T18:00:37.000Z,1025.718
2017-12-20T18:10:37.000Z,1025.828
2017-12-20T18:20:37.000Z,1025.883
2017-12-20T18:30:37.000Z,1025.978
2017-12-20T18:40:37.000Z,1025.86
2017-12-20T18:50:37.000Z,1025.882
2017-12-20T19:00:37.000Z,1025.762
2017-12-20T19:10:37.000Z,1025.639
2017-12-20T19:20:37.000Z,1025.649
2017-12-20T19:30:37.000Z,1025.556
2017-12-20T19:40:37.000Z,1025.637
2017-12-20T19:50:37.000Z,1025.668
2017-12-20T20:00:37.000Z,1025.462
2017-12-20T20:10:37.000Z,1025.619
2017-12-20T20:20:37.000Z,1025.682
2017-12-20T20:30:37.000Z,1025.685
2017-12-20T20:40:37.000Z,1025.959
2017-12-20T20:50:37.000Z,1025.77
2017-12-20T21:00:37.000Z,1025.528
2017-12-20T21:10:37.000Z,1025.283
2017-12-20T21:20:37.000Z,1025.426
2017-12-20T21:30:37.000Z,1025.528
2017-12-20T21:40:37.000Z,1025.587
2017-12-20T21:50:37.000Z,1025.401
2017-12-20T22:00:37.000Z,1025.547
2017-12-20T22:10:37.000Z,1025.566
2017-12-20T22:20:37.000Z,1025.388
2017-12-20T22:30:37.000Z,1025.328
2017-12-20T22:40:37.000Z,1025.301
2017-12-20T22:50:37.000Z,1025.528
2017-12-20T23:00:37.000Z,1025.447
2017-12-20T23:10:38.000Z,1025.495
2017-12-20T23:20:38.000Z,1025.516
2017-12-20T23:30:38.000Z,1025.488
2017-12-20T23:40:38.000Z,1025.609
2017-12-20T23:50:38.000Z,1025.509
